KRHI

Rhinelander-Oneida County Airport

Airport
ICAO code
KRHI
Summary
ICAO Region
NAM
ICAO Territory
Location

Rhinelander, Wisconsin,

Coordinates
45° 37' 52" N , 89° 28' 2" W
KCC
Airport CFIT
Altimeter Temperature Error Correction
Airport WX
Cumulonimbus
Metar
KRHI 210353Z AUTO 27005KT 10SM CLR M01/M07 A3008 RMK AO2 SLP206 T10111067 $

Description

Rhinelander–Oneida County Airport is a public use airport located 4 km southwest of the central business district of Rhinelander, a city in Oneida County, Wisconsin.

Climatology

Humid Continental climate (Köppen climate classification Dfb) - Variable weather patterns and a large seasonal temperature variance. Summers are often warm and humid with frequent thunderstorms and winters can be very cold with frequent snowfall and persistent snow cover.

Runways

Designator Length Width Surface Rops
15/33 1373 30 ASP Yes/Yes
5/23 1707 30 ASP No/No
9/27 2073 46 CON Yes/Yes

Airport map

Aerial View

SKYbrary Partners:

Safety knowledge contributed by: